• pl
  • eng

Awiacja
NEWS
last updated: 12.09.2019 14:49<\/div>
Dear users,
We would like to inform you that from September 2nd a test form of the GAFOR forecast is available on our webpage. Please send your comments and suggestions to gafor@imgw.pl that will contribute to product development.
Click on the bold red name to decode a message. 02:31 20.01.2020
  • WIND
  • SIGNIFICANT EURO
  • SIGNIFICANT
  • SIGMET
  • AIRMET
  • TAF FC
  • TAF FT
  • METAR GG30
  • METAR GG00


METAR EPBY 200130Z 26006KT 9999 OVC020 03/00 Q1040=

METAR EPGD 200130Z 26009KT 9999 BKN012 02/00 Q1039 =

METAR EPKK 200130Z 01004KT 9999 OVC030 02/01 Q1039 =

METAR EPKT 200130Z 36005KT 4100 BR SCT005 BKN006 OVC008 01/M00 Q1040
=

METAR EPLB 200130Z 01003KT 3500 BR BKN004 OVC010 02/02 Q1039 =

METAR EPLL 200130Z 29003KT 2900 BR OVC022 02/01 Q1040 =

METAR EPMO 200130Z 25003KT 9999 BKN025 02/01 Q1040 =

METAR EPPO 200130Z 25004KT 9999 OVC025 02/01 Q1042 =

METAR EPRA 200130Z NIL=

METAR EPRZ 200130Z 31003KT 1000 R27/2000N BR OVC002 01/01 Q1038 =

METAR EPSC 200130Z 20003KT 9999 OVC016 03/00 Q1041 =

METAR EPSY 200130Z VRB02KT 9999 BKN020 03/01 Q1039=

METAR EPWA 200130Z 28004KT 5000 BR BKN030 01/00 Q1040 NOSIG=

METAR EPWR 200130Z 35004KT 9999 FEW016 BKN023 03/01 Q1042 =

METAR EPZG 200130Z NIL=
Awiacja.imgw.pl jest pogodowym serwisem informacyjnym
Instytutu Meteorologii i Gospodarki Wodnej Państwowego Instytutu Badawczego.
Copyright IMGW PIB 2009-2019© Wszelkie prawa zastrzeżone.